sensor_id;sensor_type;location;lat;lon;timestamp;P1;durP1;ratioP1;P2;durP2;ratioP2
65558;SDS011;52203;51.998;5.140;2022-08-19T00:01:20;6.80;;;4.70;;
65558;SDS011;52203;51.998;5.140;2022-08-19T00:03:46;7.75;;;5.03;;
65558;SDS011;52203;51.998;5.140;2022-08-19T00:06:12;10.68;;;5.97;;
65558;SDS011;52203;51.998;5.140;2022-08-19T00:08:38;10.55;;;6.32;;
65558;SDS011;52203;51.998;5.140;2022-08-19T00:11:04;14.32;;;7.88;;
65558;SDS011;52203;51.998;5.140;2022-08-19T00:13:30;12.40;;;7.63;;
65558;SDS011;52203;51.998;5.140;2022-08-19T00:15:55;12.52;;;7.55;;
65558;SDS011;52203;51.998;5.140;2022-08-19T00:18:21;11.95;;;6.60;;
65558;SDS011;52203;51.998;5.140;2022-08-19T00:20:47;11.20;;;7.03;;
65558;SDS011;52203;51.998;5.140;2022-08-19T00:23:13;10.18;;;5.70;;
65558;SDS011;52203;51.998;5.140;2022-08-19T00:25:39;11.80;;;6.38;;
65558;SDS011;52203;51.998;5.140;2022-08-19T00:28:05;9.77;;;6.47;;
65558;SDS011;52203;51.998;5.140;2022-08-19T00:30:31;12.18;;;6.63;;
65558;SDS011;52203;51.998;5.140;2022-08-19T00:32:57;13.30;;;7.78;;
65558;SDS011;52203;51.998;5.140;2022-08-19T00:35:23;10.95;;;7.15;;
65558;SDS011;52203;51.998;5.140;2022-08-19T00:37:49;19.60;;;7.65;;
65558;SDS011;52203;51.998;5.140;2022-08-19T00:40:15;12.50;;;7.53;;
65558;SDS011;52203;51.998;5.140;2022-08-19T00:42:41;15.88;;;8.80;;
65558;SDS011;52203;51.998;5.140;2022-08-19T00:45:25;12.43;;;7.28;;
65558;SDS011;52203;51.998;5.140;2022-08-19T00:47:55;11.82;;;7.38;;
65558;SDS011;52203;51.998;5.140;2022-08-19T00:50:21;12.32;;;7.63;;
65558;SDS011;52203;51.998;5.140;2022-08-19T00:52:47;16.38;;;8.00;;
65558;SDS011;52203;51.998;5.140;2022-08-19T00:55:16;15.25;;;8.13;;
65558;SDS011;52203;51.998;5.140;2022-08-19T00:57:49;13.30;;;7.72;;
65558;SDS011;52203;51.998;5.140;2022-08-19T01:00:21;12.30;;;7.28;;
65558;SDS011;52203;51.998;5.140;2022-08-19T01:02:49;12.35;;;7.80;;
65558;SDS011;52203;51.998;5.140;2022-08-19T01:05:21;14.07;;;8.32;;
65558;SDS011;52203;51.998;5.140;2022-08-19T01:07:52;17.92;;;9.52;;
65558;SDS011;52203;51.998;5.140;2022-08-19T01:10:19;19.02;;;9.93;;
65558;SDS011;52203;51.998;5.140;2022-08-19T01:12:48;20.63;;;10.73;;
65558;SDS011;52203;51.998;5.140;2022-08-19T01:15:16;23.23;;;11.57;;
65558;SDS011;52203;51.998;5.140;2022-08-19T01:17:44;22.08;;;11.30;;
65558;SDS011;52203;51.998;5.140;2022-08-19T01:20:12;15.32;;;7.78;;
65558;SDS011;52203;51.998;5.140;2022-08-19T01:22:45;12.82;;;6.80;;
65558;SDS011;52203;51.998;5.140;2022-08-19T01:25:14;16.55;;;8.65;;
65558;SDS011;52203;51.998;5.140;2022-08-19T01:27:42;16.48;;;8.85;;
65558;SDS011;52203;51.998;5.140;2022-08-19T01:30:12;12.43;;;6.97;;
65558;SDS011;52203;51.998;5.140;2022-08-19T01:32:40;18.75;;;9.48;;
65558;SDS011;52203;51.998;5.140;2022-08-19T01:35:05;13.15;;;6.40;;
65558;SDS011;52203;51.998;5.140;2022-08-19T01:37:41;20.35;;;10.00;;
65558;SDS011;52203;51.998;5.140;2022-08-19T01:40:12;10.15;;;6.15;;
65558;SDS011;52203;51.998;5.140;2022-08-19T01:42:37;16.75;;;9.38;;
65558;SDS011;52203;51.998;5.140;2022-08-19T01:45:04;19.30;;;9.90;;
65558;SDS011;52203;51.998;5.140;2022-08-19T01:47:33;19.88;;;10.23;;
65558;SDS011;52203;51.998;5.140;2022-08-19T01:50:00;24.73;;;12.50;;
65558;SDS011;52203;51.998;5.140;2022-08-19T01:52:25;17.02;;;8.73;;
65558;SDS011;52203;51.998;5.140;2022-08-19T01:54:52;23.50;;;12.68;;
65558;SDS011;52203;51.998;5.140;2022-08-19T01:57:18;27.27;;;12.85;;
65558;SDS011;52203;51.998;5.140;2022-08-19T01:59:43;17.00;;;9.23;;
65558;SDS011;52203;51.998;5.140;2022-08-19T02:02:10;20.58;;;9.82;;
65558;SDS011;52203;51.998;5.140;2022-08-19T02:04:36;21.27;;;10.52;;
65558;SDS011;52203;51.998;5.140;2022-08-19T02:07:05;13.52;;;6.40;;
65558;SDS011;52203;51.998;5.140;2022-08-19T02:09:33;20.67;;;10.93;;
65558;SDS011;52203;51.998;5.140;2022-08-19T02:11:58;20.50;;;10.13;;
65558;SDS011;52203;51.998;5.140;2022-08-19T02:14:24;23.08;;;11.13;;
65558;SDS011;52203;51.998;5.140;2022-08-19T02:16:49;23.30;;;11.35;;
65558;SDS011;52203;51.998;5.140;2022-08-19T02:19:15;27.00;;;13.20;;
65558;SDS011;52203;51.998;5.140;2022-08-19T02:21:40;27.98;;;12.88;;
65558;SDS011;52203;51.998;5.140;2022-08-19T02:24:06;30.63;;;15.02;;
65558;SDS011;52203;51.998;5.140;2022-08-19T02:26:32;23.77;;;12.10;;
65558;SDS011;52203;51.998;5.140;2022-08-19T02:28:58;27.75;;;12.95;;
65558;SDS011;52203;51.998;5.140;2022-08-19T02:31:24;16.38;;;8.65;;
65558;SDS011;52203;51.998;5.140;2022-08-19T02:33:50;24.50;;;12.27;;
65558;SDS011;52203;51.998;5.140;2022-08-19T02:36:17;16.73;;;8.43;;
65558;SDS011;52203;51.998;5.140;2022-08-19T02:38:43;22.35;;;10.63;;
65558;SDS011;52203;51.998;5.140;2022-08-19T02:41:20;24.65;;;12.23;;
65558;SDS011;52203;51.998;5.140;2022-08-19T02:43:50;23.98;;;11.23;;
65558;SDS011;52203;51.998;5.140;2022-08-19T02:46:20;23.80;;;11.55;;
65558;SDS011;52203;51.998;5.140;2022-08-19T02:48:51;22.20;;;10.70;;
65558;SDS011;52203;51.998;5.140;2022-08-19T02:51:20;27.10;;;11.40;;
65558;SDS011;52203;51.998;5.140;2022-08-19T02:54:00;14.13;;;7.18;;
65558;SDS011;52203;51.998;5.140;2022-08-19T02:56:26;26.73;;;11.85;;
65558;SDS011;52203;51.998;5.140;2022-08-19T02:58:52;25.77;;;11.82;;
65558;SDS011;52203;51.998;5.140;2022-08-19T03:01:25;28.92;;;13.00;;
65558;SDS011;52203;51.998;5.140;2022-08-19T03:03:53;27.20;;;13.10;;
65558;SDS011;52203;51.998;5.140;2022-08-19T03:06:19;29.65;;;14.18;;
65558;SDS011;52203;51.998;5.140;2022-08-19T03:08:45;30.73;;;14.48;;
65558;SDS011;52203;51.998;5.140;2022-08-19T03:13:52;34.40;;;15.15;;
65558;SDS011;52203;51.998;5.140;2022-08-19T03:16:20;22.67;;;11.45;;
65558;SDS011;52203;51.998;5.140;2022-08-19T03:18:46;15.57;;;8.32;;
65558;SDS011;52203;51.998;5.140;2022-08-19T03:21:20;33.00;;;14.73;;
65558;SDS011;52203;51.998;5.140;2022-08-19T03:23:49;30.60;;;14.70;;
65558;SDS011;52203;51.998;5.140;2022-08-19T03:26:15;19.08;;;10.00;;
65558;SDS011;52203;51.998;5.140;2022-08-19T03:28:42;20.75;;;10.27;;
65558;SDS011;52203;51.998;5.140;2022-08-19T03:31:12;31.90;;;15.82;;
65558;SDS011;52203;51.998;5.140;2022-08-19T03:33:39;29.73;;;15.65;;
65558;SDS011;52203;51.998;5.140;2022-08-19T03:38:36;24.63;;;11.50;;
65558;SDS011;52203;51.998;5.140;2022-08-19T03:41:07;27.40;;;13.98;;
65558;SDS011;52203;51.998;5.140;2022-08-19T03:43:35;24.23;;;10.75;;
65558;SDS011;52203;51.998;5.140;2022-08-19T03:46:03;32.47;;;14.35;;
65558;SDS011;52203;51.998;5.140;2022-08-19T03:48:30;25.40;;;12.82;;
65558;SDS011;52203;51.998;5.140;2022-08-19T03:50:57;17.40;;;8.73;;
65558;SDS011;52203;51.998;5.140;2022-08-19T03:53:24;18.25;;;8.70;;
65558;SDS011;52203;51.998;5.140;2022-08-19T03:55:51;22.40;;;11.35;;
65558;SDS011;52203;51.998;5.140;2022-08-19T03:58:16;27.27;;;13.50;;
65558;SDS011;52203;51.998;5.140;2022-08-19T04:00:42;30.08;;;13.65;;
65558;SDS011;52203;51.998;5.140;2022-08-19T04:03:08;23.15;;;10.35;;
65558;SDS011;52203;51.998;5.140;2022-08-19T04:05:33;27.98;;;12.88;;
65558;SDS011;52203;51.998;5.140;2022-08-19T04:07:59;25.17;;;12.00;;
65558;SDS011;52203;51.998;5.140;2022-08-19T04:10:26;28.13;;;13.57;;
65558;SDS011;52203;51.998;5.140;2022-08-19T04:12:53;21.65;;;10.52;;
65558;SDS011;52203;51.998;5.140;2022-08-19T04:15:18;26.58;;;13.05;;
65558;SDS011;52203;51.998;5.140;2022-08-19T04:17:44;28.02;;;13.18;;
65558;SDS011;52203;51.998;5.140;2022-08-19T04:20:10;26.10;;;13.35;;
65558;SDS011;52203;51.998;5.140;2022-08-19T04:22:35;21.98;;;10.82;;
65558;SDS011;52203;51.998;5.140;2022-08-19T04:25:01;18.13;;;9.50;;
65558;SDS011;52203;51.998;5.140;2022-08-19T04:27:27;18.55;;;8.80;;
65558;SDS011;52203;51.998;5.140;2022-08-19T04:29:53;22.75;;;11.60;;
65558;SDS011;52203;51.998;5.140;2022-08-19T04:32:20;24.75;;;12.57;;
65558;SDS011;52203;51.998;5.140;2022-08-19T04:34:46;20.40;;;10.05;;
65558;SDS011;52203;51.998;5.140;2022-08-19T04:37:11;23.63;;;12.73;;
65558;SDS011;52203;51.998;5.140;2022-08-19T04:39:37;24.60;;;12.77;;
65558;SDS011;52203;51.998;5.140;2022-08-19T04:42:22;24.00;;;13.07;;
65558;SDS011;52203;51.998;5.140;2022-08-19T04:47:35;28.02;;;13.25;;
65558;SDS011;52203;51.998;5.140;2022-08-19T04:50:04;16.73;;;7.82;;
65558;SDS011;52203;51.998;5.140;2022-08-19T04:52:31;24.15;;;12.43;;
65558;SDS011;52203;51.998;5.140;2022-08-19T04:54:57;24.33;;;12.55;;
65558;SDS011;52203;51.998;5.140;2022-08-19T04:57:23;33.45;;;16.30;;
65558;SDS011;52203;51.998;5.140;2022-08-19T04:59:49;28.77;;;14.50;;
65558;SDS011;52203;51.998;5.140;2022-08-19T05:02:19;34.10;;;15.77;;
65558;SDS011;52203;51.998;5.140;2022-08-19T05:04:45;29.75;;;14.70;;
65558;SDS011;52203;51.998;5.140;2022-08-19T05:07:10;22.40;;;10.25;;
65558;SDS011;52203;51.998;5.140;2022-08-19T05:09:37;35.65;;;16.48;;
65558;SDS011;52203;51.998;5.140;2022-08-19T05:12:02;20.77;;;10.23;;
65558;SDS011;52203;51.998;5.140;2022-08-19T05:14:28;28.48;;;13.30;;
65558;SDS011;52203;51.998;5.140;2022-08-19T05:16:54;56.45;;;23.30;;
65558;SDS011;52203;51.998;5.140;2022-08-19T05:19:19;57.92;;;23.40;;
65558;SDS011;52203;51.998;5.140;2022-08-19T05:22:03;62.92;;;25.45;;
65558;SDS011;52203;51.998;5.140;2022-08-19T05:24:47;51.75;;;20.85;;
65558;SDS011;52203;51.998;5.140;2022-08-19T05:27:13;51.45;;;22.40;;
65558;SDS011;52203;51.998;5.140;2022-08-19T05:29:39;42.35;;;18.92;;
65558;SDS011;52203;51.998;5.140;2022-08-19T05:32:05;53.58;;;23.05;;
65558;SDS011;52203;51.998;5.140;2022-08-19T05:34:33;50.60;;;20.35;;
65558;SDS011;52203;51.998;5.140;2022-08-19T05:36:59;60.55;;;25.55;;
65558;SDS011;52203;51.998;5.140;2022-08-19T05:39:29;57.42;;;25.05;;
65558;SDS011;52203;51.998;5.140;2022-08-19T05:41:59;57.20;;;22.83;;
65558;SDS011;52203;51.998;5.140;2022-08-19T05:44:28;52.50;;;21.13;;
65558;SDS011;52203;51.998;5.140;2022-08-19T05:46:56;62.22;;;24.55;;
65558;SDS011;52203;51.998;5.140;2022-08-19T05:49:27;68.68;;;27.30;;
65558;SDS011;52203;51.998;5.140;2022-08-19T05:51:54;67.68;;;25.83;;
65558;SDS011;52203;51.998;5.140;2022-08-19T05:54:21;57.40;;;23.90;;
65558;SDS011;52203;51.998;5.140;2022-08-19T05:56:48;43.05;;;18.90;;
65558;SDS011;52203;51.998;5.140;2022-08-19T05:59:16;55.53;;;23.70;;
65558;SDS011;52203;51.998;5.140;2022-08-19T06:01:43;46.17;;;20.30;;
65558;SDS011;52203;51.998;5.140;2022-08-19T06:04:10;54.35;;;22.77;;
65558;SDS011;52203;51.998;5.140;2022-08-19T06:06:38;58.38;;;26.48;;
65558;SDS011;52203;51.998;5.140;2022-08-19T06:09:06;63.78;;;28.00;;
65558;SDS011;52203;51.998;5.140;2022-08-19T06:14:10;52.65;;;21.75;;
65558;SDS011;52203;51.998;5.140;2022-08-19T06:16:40;62.95;;;27.70;;
65558;SDS011;52203;51.998;5.140;2022-08-19T06:19:11;61.65;;;26.88;;
65558;SDS011;52203;51.998;5.140;2022-08-19T06:21:44;60.92;;;26.58;;
65558;SDS011;52203;51.998;5.140;2022-08-19T06:24:13;64.03;;;25.58;;
65558;SDS011;52203;51.998;5.140;2022-08-19T06:26:43;64.18;;;25.58;;
65558;SDS011;52203;51.998;5.140;2022-08-19T06:29:11;57.25;;;25.65;;
65558;SDS011;52203;51.998;5.140;2022-08-19T06:31:41;63.97;;;27.05;;
65558;SDS011;52203;51.998;5.140;2022-08-19T06:34:11;63.00;;;26.45;;
65558;SDS011;52203;51.998;5.140;2022-08-19T06:36:40;64.18;;;27.38;;
65558;SDS011;52203;51.998;5.140;2022-08-19T06:39:12;55.45;;;23.77;;
65558;SDS011;52203;51.998;5.140;2022-08-19T06:41:41;58.95;;;24.45;;
65558;SDS011;52203;51.998;5.140;2022-08-19T06:44:08;54.42;;;22.50;;
65558;SDS011;52203;51.998;5.140;2022-08-19T06:46:35;58.92;;;24.30;;
65558;SDS011;52203;51.998;5.140;2022-08-19T06:49:01;52.08;;;23.60;;
65558;SDS011;52203;51.998;5.140;2022-08-19T06:51:27;51.63;;;21.42;;
65558;SDS011;52203;51.998;5.140;2022-08-19T06:53:54;53.28;;;22.90;;
65558;SDS011;52203;51.998;5.140;2022-08-19T06:56:24;50.15;;;21.95;;
65558;SDS011;52203;51.998;5.140;2022-08-19T06:58:56;51.28;;;21.77;;
65558;SDS011;52203;51.998;5.140;2022-08-19T07:01:22;51.65;;;20.17;;
65558;SDS011;52203;51.998;5.140;2022-08-19T07:03:47;45.33;;;20.52;;
65558;SDS011;52203;51.998;5.140;2022-08-19T07:06:14;39.47;;;17.58;;
65558;SDS011;52203;51.998;5.140;2022-08-19T07:08:42;53.45;;;22.90;;
65558;SDS011;52203;51.998;5.140;2022-08-19T07:11:11;46.92;;;20.98;;
65558;SDS011;52203;51.998;5.140;2022-08-19T07:13:38;48.28;;;20.85;;
65558;SDS011;52203;51.998;5.140;2022-08-19T07:16:09;44.08;;;18.70;;
65558;SDS011;52203;51.998;5.140;2022-08-19T07:18:39;42.45;;;18.75;;
65558;SDS011;52203;51.998;5.140;2022-08-19T07:21:06;40.92;;;19.58;;
65558;SDS011;52203;51.998;5.140;2022-08-19T07:23:45;47.55;;;18.25;;
65558;SDS011;52203;51.998;5.140;2022-08-19T07:28:48;36.72;;;16.35;;
65558;SDS011;52203;51.998;5.140;2022-08-19T07:31:16;49.40;;;21.38;;
65558;SDS011;52203;51.998;5.140;2022-08-19T07:33:43;48.80;;;21.58;;
65558;SDS011;52203;51.998;5.140;2022-08-19T07:36:11;41.92;;;19.33;;
65558;SDS011;52203;51.998;5.140;2022-08-19T07:38:38;40.92;;;18.52;;
65558;SDS011;52203;51.998;5.140;2022-08-19T07:41:06;44.53;;;19.80;;
65558;SDS011;52203;51.998;5.140;2022-08-19T07:43:34;47.00;;;21.67;;
65558;SDS011;52203;51.998;5.140;2022-08-19T07:46:00;39.53;;;20.15;;
65558;SDS011;52203;51.998;5.140;2022-08-19T07:48:26;47.40;;;20.67;;
65558;SDS011;52203;51.998;5.140;2022-08-19T07:50:54;40.45;;;17.92;;
65558;SDS011;52203;51.998;5.140;2022-08-19T07:53:22;42.20;;;20.45;;
65558;SDS011;52203;51.998;5.140;2022-08-19T07:55:49;41.35;;;20.05;;
65558;SDS011;52203;51.998;5.140;2022-08-19T07:58:16;39.47;;;18.50;;
65558;SDS011;52203;51.998;5.140;2022-08-19T08:00:44;45.33;;;20.42;;
65558;SDS011;52203;51.998;5.140;2022-08-19T08:03:11;39.65;;;20.08;;
65558;SDS011;52203;51.998;5.140;2022-08-19T08:05:38;37.88;;;19.13;;
65558;SDS011;52203;51.998;5.140;2022-08-19T08:08:22;41.45;;;19.25;;
65558;SDS011;52203;51.998;5.140;2022-08-19T08:11:00;35.47;;;18.45;;
65558;SDS011;52203;51.998;5.140;2022-08-19T08:13:26;37.35;;;18.65;;
65558;SDS011;52203;51.998;5.140;2022-08-19T08:15:52;42.13;;;21.67;;
65558;SDS011;52203;51.998;5.140;2022-08-19T08:18:18;41.65;;;20.08;;
65558;SDS011;52203;51.998;5.140;2022-08-19T08:20:45;39.65;;;19.33;;
65558;SDS011;52203;51.998;5.140;2022-08-19T08:23:11;40.08;;;19.65;;
65558;SDS011;52203;51.998;5.140;2022-08-19T08:25:54;41.03;;;18.38;;
65558;SDS011;52203;51.998;5.140;2022-08-19T08:28:21;36.75;;;18.30;;
65558;SDS011;52203;51.998;5.140;2022-08-19T08:30:48;38.83;;;18.50;;
65558;SDS011;52203;51.998;5.140;2022-08-19T08:33:18;35.05;;;18.40;;
65558;SDS011;52203;51.998;5.140;2022-08-19T08:35:46;33.20;;;18.50;;
65558;SDS011;52203;51.998;5.140;2022-08-19T08:38:12;35.03;;;18.80;;
65558;SDS011;52203;51.998;5.140;2022-08-19T08:40:50;33.42;;;18.15;;
65558;SDS011;52203;51.998;5.140;2022-08-19T08:43:27;38.45;;;18.42;;
65558;SDS011;52203;51.998;5.140;2022-08-19T08:46:02;28.95;;;15.15;;
65558;SDS011;52203;51.998;5.140;2022-08-19T08:48:33;29.27;;;15.32;;
65558;SDS011;52203;51.998;5.140;2022-08-19T08:51:02;29.42;;;15.45;;
65558;SDS011;52203;51.998;5.140;2022-08-19T08:53:32;29.92;;;16.17;;
65558;SDS011;52203;51.998;5.140;2022-08-19T08:56:00;31.35;;;16.55;;
65558;SDS011;52203;51.998;5.140;2022-08-19T08:58:48;31.58;;;17.67;;
65558;SDS011;52203;51.998;5.140;2022-08-19T09:01:24;32.78;;;16.88;;
65558;SDS011;52203;51.998;5.140;2022-08-19T09:03:51;34.78;;;17.50;;
65558;SDS011;52203;51.998;5.140;2022-08-19T09:09:10;42.10;;;21.02;;
65558;SDS011;52203;51.998;5.140;2022-08-19T09:14:57;28.80;;;15.47;;
65558;SDS011;52203;51.998;5.140;2022-08-19T09:17:27;37.38;;;19.88;;
65558;SDS011;52203;51.998;5.140;2022-08-19T09:22:39;42.40;;;22.23;;
65558;SDS011;52203;51.998;5.140;2022-08-19T09:25:07;30.88;;;15.75;;
65558;SDS011;52203;51.998;5.140;2022-08-19T09:27:35;42.13;;;19.95;;
65558;SDS011;52203;51.998;5.140;2022-08-19T09:30:03;39.10;;;19.85;;
65558;SDS011;52203;51.998;5.140;2022-08-19T09:32:32;43.50;;;21.23;;
65558;SDS011;52203;51.998;5.140;2022-08-19T09:34:58;40.92;;;21.70;;
65558;SDS011;52203;51.998;5.140;2022-08-19T09:37:25;37.20;;;19.63;;
65558;SDS011;52203;51.998;5.140;2022-08-19T09:39:51;34.92;;;18.23;;
65558;SDS011;52203;51.998;5.140;2022-08-19T09:42:17;37.28;;;20.15;;
65558;SDS011;52203;51.998;5.140;2022-08-19T09:44:43;35.60;;;18.50;;
65558;SDS011;52203;51.998;5.140;2022-08-19T09:47:10;35.75;;;18.25;;
65558;SDS011;52203;51.998;5.140;2022-08-19T09:49:37;42.38;;;20.27;;
65558;SDS011;52203;51.998;5.140;2022-08-19T09:52:04;39.53;;;20.55;;
65558;SDS011;52203;51.998;5.140;2022-08-19T09:54:34;41.60;;;20.90;;
65558;SDS011;52203;51.998;5.140;2022-08-19T09:56:59;37.85;;;20.73;;
65558;SDS011;52203;51.998;5.140;2022-08-19T09:59:25;38.40;;;20.13;;
65558;SDS011;52203;51.998;5.140;2022-08-19T10:01:51;35.97;;;20.30;;
65558;SDS011;52203;51.998;5.140;2022-08-19T10:04:17;41.65;;;22.83;;
65558;SDS011;52203;51.998;5.140;2022-08-19T10:06:43;39.67;;;21.50;;
65558;SDS011;52203;51.998;5.140;2022-08-19T10:09:09;37.63;;;20.30;;
65558;SDS011;52203;51.998;5.140;2022-08-19T10:11:36;29.80;;;16.90;;
65558;SDS011;52203;51.998;5.140;2022-08-19T10:14:05;33.92;;;18.30;;
65558;SDS011;52203;51.998;5.140;2022-08-19T10:16:31;38.35;;;21.20;;
65558;SDS011;52203;51.998;5.140;2022-08-19T10:18:58;35.97;;;18.52;;
65558;SDS011;52203;51.998;5.140;2022-08-19T10:21:25;37.67;;;18.25;;
65558;SDS011;52203;51.998;5.140;2022-08-19T10:23:55;35.97;;;19.42;;
65558;SDS011;52203;51.998;5.140;2022-08-19T10:26:25;33.75;;;18.65;;
65558;SDS011;52203;51.998;5.140;2022-08-19T10:28:53;41.60;;;20.45;;
65558;SDS011;52203;51.998;5.140;2022-08-19T10:31:20;33.53;;;19.55;;
65558;SDS011;52203;51.998;5.140;2022-08-19T10:33:51;33.58;;;18.25;;
65558;SDS011;52203;51.998;5.140;2022-08-19T10:36:22;28.23;;;15.45;;
65558;SDS011;52203;51.998;5.140;2022-08-19T10:38:54;33.72;;;16.75;;
65558;SDS011;52203;51.998;5.140;2022-08-19T10:41:25;31.58;;;18.45;;
65558;SDS011;52203;51.998;5.140;2022-08-19T10:43:53;31.05;;;16.58;;
65558;SDS011;52203;51.998;5.140;2022-08-19T10:46:20;32.70;;;18.40;;
65558;SDS011;52203;51.998;5.140;2022-08-19T10:48:48;32.30;;;17.27;;
65558;SDS011;52203;51.998;5.140;2022-08-19T10:51:15;39.08;;;21.70;;
65558;SDS011;52203;51.998;5.140;2022-08-19T10:53:59;30.90;;;18.80;;
65558;SDS011;52203;51.998;5.140;2022-08-19T10:56:25;24.00;;;15.38;;
65558;SDS011;52203;51.998;5.140;2022-08-19T10:59:10;34.47;;;18.20;;
65558;SDS011;52203;51.998;5.140;2022-08-19T11:01:38;29.67;;;17.42;;
65558;SDS011;52203;51.998;5.140;2022-08-19T11:04:04;28.50;;;16.67;;
65558;SDS011;52203;51.998;5.140;2022-08-19T11:06:33;27.42;;;16.10;;
65558;SDS011;52203;51.998;5.140;2022-08-19T11:08:58;32.92;;;18.73;;
65558;SDS011;52203;51.998;5.140;2022-08-19T11:11:25;35.85;;;21.13;;
65558;SDS011;52203;51.998;5.140;2022-08-19T11:13:51;32.03;;;19.00;;
65558;SDS011;52203;51.998;5.140;2022-08-19T11:16:21;29.08;;;17.85;;
65558;SDS011;52203;51.998;5.140;2022-08-19T11:18:50;28.10;;;17.83;;
65558;SDS011;52203;51.998;5.140;2022-08-19T11:21:21;28.02;;;18.13;;
65558;SDS011;52203;51.998;5.140;2022-08-19T11:23:51;31.63;;;18.00;;
65558;SDS011;52203;51.998;5.140;2022-08-19T11:26:19;25.20;;;16.10;;
65558;SDS011;52203;51.998;5.140;2022-08-19T11:28:46;22.38;;;13.77;;
65558;SDS011;52203;51.998;5.140;2022-08-19T11:31:16;28.38;;;18.05;;
65558;SDS011;52203;51.998;5.140;2022-08-19T11:33:43;23.52;;;14.18;;
65558;SDS011;52203;51.998;5.140;2022-08-19T11:36:09;21.67;;;15.07;;
65558;SDS011;52203;51.998;5.140;2022-08-19T11:38:35;26.30;;;16.42;;
65558;SDS011;52203;51.998;5.140;2022-08-19T11:41:02;25.13;;;17.20;;
65558;SDS011;52203;51.998;5.140;2022-08-19T11:43:30;24.40;;;15.40;;
65558;SDS011;52203;51.998;5.140;2022-08-19T11:45:57;25.95;;;15.82;;
65558;SDS011;52203;51.998;5.140;2022-08-19T11:48:23;24.52;;;16.52;;
65558;SDS011;52203;51.998;5.140;2022-08-19T11:50:50;27.75;;;17.00;;
65558;SDS011;52203;51.998;5.140;2022-08-19T11:53:21;25.17;;;14.63;;
65558;SDS011;52203;51.998;5.140;2022-08-19T11:55:47;22.10;;;15.20;;
65558;SDS011;52203;51.998;5.140;2022-08-19T11:58:13;22.80;;;15.00;;
65558;SDS011;52203;51.998;5.140;2022-08-19T12:00:40;25.17;;;15.63;;
65558;SDS011;52203;51.998;5.140;2022-08-19T12:03:07;24.00;;;15.75;;
65558;SDS011;52203;51.998;5.140;2022-08-19T12:05:32;20.13;;;14.02;;
65558;SDS011;52203;51.998;5.140;2022-08-19T12:08:00;21.83;;;14.10;;
65558;SDS011;52203;51.998;5.140;2022-08-19T12:10:26;27.75;;;15.82;;
65558;SDS011;52203;51.998;5.140;2022-08-19T12:12:51;19.05;;;12.07;;
65558;SDS011;52203;51.998;5.140;2022-08-19T12:15:18;20.58;;;14.18;;
65558;SDS011;52203;51.998;5.140;2022-08-19T12:17:44;17.58;;;11.30;;
65558;SDS011;52203;51.998;5.140;2022-08-19T12:20:10;18.00;;;10.52;;
65558;SDS011;52203;51.998;5.140;2022-08-19T12:22:38;15.02;;;9.70;;
65558;SDS011;52203;51.998;5.140;2022-08-19T12:25:10;16.38;;;10.32;;
65558;SDS011;52203;51.998;5.140;2022-08-19T12:27:37;18.10;;;11.50;;
65558;SDS011;52203;51.998;5.140;2022-08-19T12:30:04;16.52;;;10.52;;
65558;SDS011;52203;51.998;5.140;2022-08-19T12:32:31;23.13;;;12.88;;
65558;SDS011;52203;51.998;5.140;2022-08-19T12:34:56;18.52;;;11.27;;
65558;SDS011;52203;51.998;5.140;2022-08-19T12:37:22;22.02;;;11.45;;
65558;SDS011;52203;51.998;5.140;2022-08-19T12:39:47;18.65;;;9.98;;
65558;SDS011;52203;51.998;5.140;2022-08-19T12:42:13;15.77;;;9.82;;
65558;SDS011;52203;51.998;5.140;2022-08-19T12:44:40;13.30;;;8.20;;
65558;SDS011;52203;51.998;5.140;2022-08-19T12:47:07;16.42;;;10.07;;
65558;SDS011;52203;51.998;5.140;2022-08-19T12:49:34;13.80;;;9.82;;
65558;SDS011;52203;51.998;5.140;2022-08-19T12:52:02;15.88;;;9.50;;
65558;SDS011;52203;51.998;5.140;2022-08-19T12:54:28;11.40;;;8.13;;
65558;SDS011;52203;51.998;5.140;2022-08-19T12:56:55;12.43;;;7.03;;
65558;SDS011;52203;51.998;5.140;2022-08-19T12:59:21;13.35;;;7.75;;
65558;SDS011;52203;51.998;5.140;2022-08-19T13:01:47;23.65;;;9.45;;
65558;SDS011;52203;51.998;5.140;2022-08-19T13:04:12;14.63;;;8.95;;
65558;SDS011;52203;51.998;5.140;2022-08-19T13:06:38;20.35;;;9.95;;
65558;SDS011;52203;51.998;5.140;2022-08-19T13:09:04;15.45;;;9.50;;
65558;SDS011;52203;51.998;5.140;2022-08-19T13:11:30;23.48;;;10.55;;
65558;SDS011;52203;51.998;5.140;2022-08-19T13:13:59;13.93;;;7.25;;
65558;SDS011;52203;51.998;5.140;2022-08-19T13:16:26;10.68;;;6.50;;
65558;SDS011;52203;51.998;5.140;2022-08-19T13:18:52;9.48;;;5.18;;
65558;SDS011;52203;51.998;5.140;2022-08-19T13:21:21;15.75;;;5.63;;
65558;SDS011;52203;51.998;5.140;2022-08-19T13:23:49;12.10;;;4.90;;
65558;SDS011;52203;51.998;5.140;2022-08-19T13:26:16;10.93;;;5.40;;
65558;SDS011;52203;51.998;5.140;2022-08-19T13:28:43;10.27;;;5.43;;
65558;SDS011;52203;51.998;5.140;2022-08-19T13:31:29;8.95;;;4.95;;
65558;SDS011;52203;51.998;5.140;2022-08-19T13:34:15;9.73;;;5.40;;
65558;SDS011;52203;51.998;5.140;2022-08-19T13:36:41;8.50;;;5.03;;
65558;SDS011;52203;51.998;5.140;2022-08-19T13:39:07;13.27;;;7.60;;
65558;SDS011;52203;51.998;5.140;2022-08-19T13:41:33;10.85;;;5.65;;
65558;SDS011;52203;51.998;5.140;2022-08-19T13:44:00;12.13;;;6.88;;
65558;SDS011;52203;51.998;5.140;2022-08-19T13:46:26;12.43;;;6.43;;
65558;SDS011;52203;51.998;5.140;2022-08-19T13:48:54;10.20;;;5.03;;
65558;SDS011;52203;51.998;5.140;2022-08-19T13:51:20;10.38;;;5.07;;
65558;SDS011;52203;51.998;5.140;2022-08-19T13:53:45;7.30;;;3.97;;
65558;SDS011;52203;51.998;5.140;2022-08-19T13:56:12;7.85;;;4.70;;
65558;SDS011;52203;51.998;5.140;2022-08-19T13:58:41;8.40;;;4.70;;
65558;SDS011;52203;51.998;5.140;2022-08-19T14:01:07;6.15;;;4.47;;
65558;SDS011;52203;51.998;5.140;2022-08-19T14:03:33;7.55;;;4.70;;
65558;SDS011;52203;51.998;5.140;2022-08-19T14:05:59;6.25;;;4.35;;
65558;SDS011;52203;51.998;5.140;2022-08-19T14:08:25;6.38;;;4.50;;
65558;SDS011;52203;51.998;5.140;2022-08-19T14:10:53;5.88;;;4.43;;
65558;SDS011;52203;51.998;5.140;2022-08-19T14:13:21;6.03;;;4.53;;
65558;SDS011;52203;51.998;5.140;2022-08-19T14:15:48;7.38;;;5.40;;
65558;SDS011;52203;51.998;5.140;2022-08-19T14:18:14;8.60;;;5.32;;
65558;SDS011;52203;51.998;5.140;2022-08-19T14:20:42;7.50;;;5.35;;
65558;SDS011;52203;51.998;5.140;2022-08-19T14:23:07;7.53;;;5.30;;
65558;SDS011;52203;51.998;5.140;2022-08-19T14:25:33;7.80;;;5.82;;
65558;SDS011;52203;51.998;5.140;2022-08-19T14:27:59;8.77;;;6.40;;
65558;SDS011;52203;51.998;5.140;2022-08-19T14:30:28;10.45;;;6.30;;
65558;SDS011;52203;51.998;5.140;2022-08-19T14:32:56;9.32;;;6.38;;
65558;SDS011;52203;51.998;5.140;2022-08-19T14:35:25;9.70;;;6.60;;
65558;SDS011;52203;51.998;5.140;2022-08-19T14:37:51;7.13;;;4.68;;
65558;SDS011;52203;51.998;5.140;2022-08-19T14:40:20;7.45;;;4.82;;
65558;SDS011;52203;51.998;5.140;2022-08-19T14:42:51;8.68;;;5.32;;
65558;SDS011;52203;51.998;5.140;2022-08-19T14:45:24;10.52;;;5.75;;
65558;SDS011;52203;51.998;5.140;2022-08-19T14:47:51;11.65;;;6.25;;
65558;SDS011;52203;51.998;5.140;2022-08-19T14:50:17;9.63;;;5.40;;
65558;SDS011;52203;51.998;5.140;2022-08-19T14:52:43;12.70;;;7.28;;